createdAt,value
2019-05-12T00:03:45.807Z,12.18
2019-05-12T00:08:52.253Z,11.48
2019-05-12T00:13:58.785Z,11.00
2019-05-12T00:19:05.566Z,10.10
2019-05-12T00:24:11.833Z,8.08
2019-05-12T00:29:18.591Z,6.95
2019-05-12T00:34:24.753Z,6.87
2019-05-12T00:39:31.141Z,5.62
2019-05-12T00:44:39.044Z,4.90
2019-05-12T00:49:45.268Z,5.08
2019-05-12T00:54:51.400Z,4.45
2019-05-12T00:59:58.204Z,5.15
2019-05-12T01:05:04.491Z,5.17
2019-05-12T01:10:10.760Z,5.55
2019-05-12T01:15:17.899Z,5.90
2019-05-12T01:20:24.255Z,5.85
2019-05-12T01:25:30.607Z,5.15
2019-05-12T01:30:39.030Z,4.72
2019-05-12T01:35:44.571Z,3.80
2019-05-12T01:40:50.723Z,4.05
2019-05-12T01:45:58.962Z,4.00
2019-05-12T01:51:04.898Z,4.20
2019-05-12T01:56:11.470Z,3.72
2019-05-12T02:01:18.581Z,4.17
2019-05-12T02:06:24.545Z,4.17
2019-05-12T02:11:33.509Z,4.65
2019-05-12T02:16:39.666Z,4.40
2019-05-12T02:21:46.000Z,4.22
2019-05-12T02:26:52.293Z,4.20
2019-05-12T02:31:59.151Z,4.40
2019-05-12T02:37:05.777Z,4.45
2019-05-12T02:42:15.350Z,4.00
2019-05-12T02:47:19.684Z,3.90
2019-05-12T02:52:25.935Z,4.40
2019-05-12T02:57:34.432Z,4.28
2019-05-12T03:02:44.245Z,3.95
2019-05-12T03:07:50.326Z,4.25
2019-05-12T03:12:56.735Z,4.10
2019-05-12T03:18:06.164Z,4.10
2019-05-12T03:23:11.455Z,4.40
2019-05-12T03:28:18.081Z,4.25
2019-05-12T03:33:33.334Z,4.30
2019-05-12T03:38:35.956Z,5.20
2019-05-12T03:43:44.596Z,4.35
2019-05-12T03:48:49.613Z,4.00
2019-05-12T03:53:56.003Z,4.33
2019-05-12T03:59:04.778Z,4.28
2019-05-12T04:04:10.910Z,3.70
2019-05-12T04:09:17.224Z,4.03
2019-05-12T04:14:25.177Z,4.22
2019-05-12T04:19:34.182Z,3.80
2019-05-12T04:24:39.367Z,4.22
2019-05-12T04:29:45.798Z,4.50
2019-05-12T04:34:54.933Z,4.28
2019-05-12T04:40:00.074Z,3.85
2019-05-12T04:45:07.082Z,4.55
2019-05-12T04:50:15.532Z,5.08
2019-05-12T04:55:21.519Z,4.05
2019-05-12T05:00:27.803Z,4.97
2019-05-12T05:05:35.383Z,5.30
2019-05-12T05:10:44.381Z,4.78
2019-05-12T05:15:50.119Z,4.55
2019-05-12T05:20:56.294Z,4.87
2019-05-12T05:26:03.278Z,4.55
2019-05-12T05:31:09.647Z,4.62
2019-05-12T05:36:19.841Z,6.08
2019-05-12T05:41:24.133Z,7.67
2019-05-12T05:46:30.250Z,7.50
2019-05-12T05:51:39.478Z,6.22
2019-05-12T05:56:57.553Z,6.92
2019-05-12T06:01:54.833Z,6.50
2019-05-12T06:07:00.562Z,5.92
2019-05-12T06:12:09.714Z,5.92
2019-05-12T06:17:14.821Z,6.67
2019-05-12T06:22:23.393Z,6.33
2019-05-12T06:27:29.109Z,6.37
2019-05-12T06:32:35.451Z,6.37
2019-05-12T06:37:44.197Z,5.87
2019-05-12T06:42:54.102Z,6.08
2019-05-12T06:47:57.880Z,6.83
2019-05-12T06:53:05.028Z,6.90
2019-05-12T06:58:13.757Z,7.33
2019-05-12T07:03:24.719Z,7.22
2019-05-12T07:08:32.929Z,7.03
2019-05-12T07:13:35.664Z,6.95
2019-05-12T07:18:43.725Z,7.47
2019-05-12T07:23:50.028Z,6.22
2019-05-12T07:28:56.323Z,6.00
2019-05-12T07:34:05.307Z,5.22
2019-05-12T07:39:10.399Z,6.05
2019-05-12T07:44:18.089Z,8.55
2019-05-12T07:49:34.472Z,8.65
2019-05-12T07:54:37.323Z,7.50
2019-05-12T07:59:41.132Z,7.30
2019-05-12T08:04:47.372Z,5.60
2019-05-12T08:09:53.706Z,5.22
2019-05-12T08:15:07.794Z,5.22
2019-05-12T08:20:08.417Z,4.90
2019-05-12T08:25:18.819Z,4.87
2019-05-12T08:30:34.675Z,4.80
2019-05-12T08:35:40.888Z,4.12
2019-05-12T08:40:50.906Z,4.10
2019-05-12T08:46:00.330Z,4.10
2019-05-12T08:51:05.274Z,3.35
2019-05-12T08:56:14.753Z,2.83
2019-05-12T09:01:20.263Z,2.62
2019-05-12T09:06:28.035Z,2.80
2019-05-12T09:11:34.332Z,2.50
2019-05-12T09:16:40.987Z,2.42
2019-05-12T09:21:47.226Z,2.12
2019-05-12T09:26:53.903Z,2.22
2019-05-12T09:32:05.418Z,1.80
2019-05-12T09:37:08.382Z,1.72
2019-05-12T09:42:19.436Z,2.33
2019-05-12T09:47:27.594Z,1.90
2019-05-12T09:52:33.392Z,2.15
2019-05-12T09:57:41.159Z,1.80
2019-05-12T10:02:51.140Z,2.00
2019-05-12T10:07:55.709Z,1.70
2019-05-12T10:13:04.301Z,1.60
2019-05-12T10:18:11.367Z,2.10
2019-05-12T10:23:21.516Z,1.80
2019-05-12T10:28:25.998Z,1.70
2019-05-12T10:33:33.816Z,1.60
2019-05-12T10:38:40.118Z,1.75
2019-05-12T10:43:48.511Z,1.80
2019-05-12T10:48:54.564Z,2.02
2019-05-12T10:54:09.117Z,2.83
2019-05-12T10:59:10.495Z,2.37
2019-05-12T11:04:17.017Z,4.35
2019-05-12T11:09:27.413Z,2.75
2019-05-12T11:14:31.254Z,2.80
2019-05-12T11:19:40.882Z,1.60
2019-05-12T11:24:46.038Z,3.20
2019-05-12T11:29:53.477Z,1.35
2019-05-12T11:34:59.780Z,1.30
2019-05-12T11:40:07.606Z,1.20
2019-05-12T11:45:14.122Z,1.00
2019-05-12T11:50:20.685Z,1.30
2019-05-12T11:55:31.320Z,0.93
2019-05-12T12:00:36.775Z,1.15
2019-05-12T12:05:44.324Z,1.22
2019-05-12T12:10:50.795Z,1.12
2019-05-12T12:16:00.577Z,1.22
2019-05-12T12:21:07.715Z,1.12
2019-05-12T12:26:26.128Z,1.22
2019-05-12T12:31:48.233Z,1.80
2019-05-12T12:36:54.696Z,1.60
2019-05-12T12:42:01.043Z,1.80
2019-05-12T12:47:07.386Z,1.30
2019-05-12T12:52:13.986Z,1.47
2019-05-12T12:57:20.248Z,1.40
2019-05-12T13:02:26.561Z,1.50
2019-05-12T13:07:33.412Z,1.77
2019-05-12T13:12:40.073Z,1.55
2019-05-12T13:17:46.283Z,1.27
2019-05-12T13:22:53.607Z,1.85
2019-05-12T13:28:01.666Z,1.60
2019-05-12T13:33:14.862Z,1.75
2019-05-12T13:38:16.492Z,1.62
2019-05-12T13:43:23.712Z,1.75
2019-05-12T13:48:30.383Z,1.60
2019-05-12T13:53:40.462Z,1.85
2019-05-12T13:58:45.947Z,2.00
2019-05-12T14:03:53.579Z,1.50
2019-05-12T14:09:00.195Z,1.60
2019-05-12T14:14:11.361Z,1.30
2019-05-12T14:19:14.835Z,1.42
2019-05-12T14:24:23.184Z,1.10
2019-05-12T14:29:30.598Z,1.32
2019-05-12T14:34:37.013Z,1.87
2019-05-12T14:39:48.312Z,1.30
2019-05-12T14:44:51.192Z,1.00
2019-05-12T14:49:57.497Z,1.10
2019-05-12T14:55:03.731Z,0.88
2019-05-12T15:00:11.214Z,0.90
2019-05-12T15:05:18.489Z,1.17
2019-05-12T15:10:24.876Z,1.00
2019-05-12T15:15:33.463Z,1.20
2019-05-12T15:20:41.612Z,1.10
2019-05-12T15:25:47.259Z,0.93
2019-05-12T15:30:54.164Z,0.82
2019-05-12T15:36:00.600Z,1.02
2019-05-12T15:41:10.789Z,0.90
2019-05-12T15:46:16.438Z,1.02
2019-05-12T15:51:23.422Z,0.88
2019-05-12T15:56:29.944Z,1.00
2019-05-12T16:01:36.034Z,0.80
2019-05-12T16:06:52.911Z,0.80
2019-05-12T16:11:50.808Z,1.20
2019-05-12T16:16:57.278Z,0.80
2019-05-12T16:22:03.753Z,1.00
2019-05-12T16:27:10.006Z,0.90
2019-05-12T16:32:26.424Z,0.60
2019-05-12T16:37:31.057Z,0.90
2019-05-12T16:42:33.641Z,1.02
2019-05-12T16:47:40.152Z,0.98
2019-05-12T16:52:46.342Z,0.80
2019-05-12T16:57:55.795Z,0.90
2019-05-12T17:03:00.920Z,0.90
2019-05-12T17:08:07.103Z,0.93
2019-05-12T17:13:16.045Z,0.78
2019-05-12T17:18:24.425Z,0.98
2019-05-12T17:23:29.559Z,1.00
2019-05-12T17:28:35.791Z,0.90
2019-05-12T17:33:42.222Z,1.10
2019-05-12T17:38:51.227Z,0.90
2019-05-12T17:44:01.405Z,0.90
2019-05-12T17:49:04.754Z,1.00
2019-05-12T17:54:15.748Z,0.80
2019-05-12T17:59:24.505Z,0.85
2019-05-12T18:04:30.522Z,0.80
2019-05-12T18:09:34.747Z,0.85
2019-05-12T18:14:50.325Z,0.70
2019-05-12T18:19:50.398Z,0.80
2019-05-12T18:24:57.231Z,0.80
2019-05-12T18:30:04.518Z,0.80
2019-05-12T18:35:10.763Z,0.90
2019-05-12T18:40:17.316Z,1.00
2019-05-12T18:45:24.086Z,0.90
2019-05-12T18:50:32.100Z,0.90
2019-05-12T18:55:40.313Z,0.88
2019-05-12T19:00:46.666Z,0.90
2019-05-12T19:05:54.278Z,1.05
2019-05-12T19:11:14.927Z,1.17
2019-05-12T19:16:11.288Z,1.20
2019-05-12T19:21:20.103Z,0.90
2019-05-12T19:26:24.893Z,1.00
2019-05-12T19:31:30.880Z,1.00
2019-05-12T19:36:46.563Z,0.93
2019-05-12T19:41:45.998Z,1.37
2019-05-12T19:46:53.940Z,1.27
2019-05-12T19:52:00.610Z,1.25
2019-05-12T19:57:15.553Z,1.62
2019-05-12T20:02:15.522Z,1.12
2019-05-12T20:07:23.342Z,1.62
2019-05-12T20:12:29.623Z,1.10
2019-05-12T20:17:36.063Z,1.10
2019-05-12T20:22:44.053Z,1.20
2019-05-12T20:27:56.169Z,1.17
2019-05-12T20:32:58.494Z,1.07
2019-05-12T20:38:04.696Z,1.20
2019-05-12T20:43:14.458Z,1.40
2019-05-12T20:48:19.771Z,1.27
2019-05-12T20:53:31.723Z,1.40
2019-05-12T20:58:42.988Z,1.27
2019-05-12T21:03:46.354Z,1.30
2019-05-12T21:08:53.792Z,1.40
2019-05-12T21:14:01.059Z,1.60
2019-05-12T21:19:11.009Z,1.17
2019-05-12T21:24:15.067Z,1.35
2019-05-12T21:29:25.606Z,1.52
2019-05-12T21:34:29.388Z,1.25
2019-05-12T21:39:40.493Z,1.30
2019-05-12T21:44:46.845Z,1.22
2019-05-12T21:49:55.729Z,1.50
2019-05-12T21:55:00.140Z,1.50
2019-05-12T22:00:15.907Z,1.40
2019-05-12T22:05:30.014Z,1.10
2019-05-12T22:10:30.689Z,1.52
2019-05-12T22:15:37.261Z,1.32
2019-05-12T22:20:44.356Z,1.40
2019-05-12T22:25:55.588Z,1.47
2019-05-12T22:30:59.655Z,1.50
2019-05-12T22:36:14.187Z,1.72
2019-05-12T22:41:14.195Z,1.55
2019-05-12T22:46:23.342Z,1.52
2019-05-12T22:51:28.618Z,1.60
2019-05-12T22:56:34.912Z,1.72
2019-05-12T23:01:43.770Z,1.40
2019-05-12T23:06:48.916Z,1.40
2019-05-12T23:11:55.147Z,1.30
2019-05-12T23:17:05.685Z,1.50
2019-05-12T23:22:09.324Z,1.70
2019-05-12T23:27:18.863Z,1.50
2019-05-12T23:32:24.223Z,1.50
2019-05-12T23:37:38.348Z,1.67
2019-05-12T23:42:38.439Z,1.70
2019-05-12T23:47:45.621Z,1.60
2019-05-12T23:52:54.063Z,1.70
2019-05-12T23:58:00.026Z,1.65
